Time;durP1;ratioP1;P1;durP2;ratioP2;P2;SDS_P1;SDS_P2;PMS_P1;PMS_P2;Temp;Humidity;BMP_temperature;BMP_pressure;BME280_temperature;BME280_humidity;BME280_pressure;Samples;Min_cycle;Max_cycle;Signal;HPM_P1;HPM_P2
2022/11/25 00:02:14;;;;;;;;;;;;;;;14.22;72.18;100929.53;5114735;27;20407;-83
2022/11/25 00:04:39;;;;;;;;;;;;;;;14.28;72.22;100944.63;5133097;27;20348;-83
2022/11/25 00:07:05;;;;;;;;;;;;;;;14.25;72.31;100934.00;5133389;27;19962;-83
2022/11/25 00:09:30;;;;;;;;;;;;;;;14.25;72.52;100940.16;5133428;27;19988;-83
2022/11/25 00:11:56;;;;;;;;;;;;;;;14.22;72.16;100944.38;5114829;27;19938;-83
2022/11/25 00:14:21;;;;;;;;;;;;;;;14.27;72.07;100934.09;5114356;27;20395;-83
2022/11/25 00:16:46;;;;;;;;;;;;;;;14.20;72.11;100941.69;5131907;27;20372;-83
2022/11/25 00:19:12;;;;;;;;;;;;;;;14.25;72.15;100945.41;5140110;27;19981;-84
2022/11/25 00:21:37;;;;;;;;;;;;;;;14.22;72.35;100936.50;5137728;27;19921;-83
2022/11/25 00:24:04;;;;;;;;;;;;;;;14.18;72.44;100938.13;5134678;27;20002;-83
2022/11/25 00:26:31;;;;;;;;;;;;;;;14.21;71.97;100934.72;5114732;27;20400;-83
2022/11/25 00:28:57;;;;;;;;;;;;;;;14.15;72.38;100935.34;5116323;27;19911;-83
2022/11/25 00:31:24;;;;;;;;;;;;;;;14.18;72.08;100935.47;5103773;28;19922;-83
2022/11/25 00:33:49;;;;;;;;;;;;;;;14.15;72.19;100942.31;5128325;27;19912;-83
2022/11/25 00:36:22;;;;;;;;;;;;;;;14.15;72.48;100951.09;5109407;27;19926;-83
2022/11/25 00:38:51;;;;;;;;;;;;;;;14.13;71.94;100941.38;5132824;27;19934;-83
2022/11/25 00:46:45;;;;;;;;;;;;;;;14.13;71.43;100955.38;5132651;27;19921;-83
2022/11/25 00:49:10;;;;;;;;;;;;;;;14.11;71.60;100945.66;5101121;27;19994;-84
2022/11/25 00:51:35;;;;;;;;;;;;;;;14.12;71.97;100953.59;5112902;27;20215;-83
2022/11/25 00:54:01;;;;;;;;;;;;;;;14.11;72.32;100961.41;5132767;27;19922;-84
2022/11/25 00:56:26;;;;;;;;;;;;;;;14.14;72.23;100954.56;5113982;27;19915;-83
2022/11/25 00:58:52;;;;;;;;;;;;;;;14.15;72.52;100956.34;5132726;27;19938;-84
2022/11/25 01:01:17;;;;;;;;;;;;;;;14.15;72.57;100956.34;5131941;27;19912;-83
2022/11/25 01:03:42;;;;;;;;;;;;;;;14.19;72.42;100958.28;5125342;27;19914;-83
2022/11/25 01:06:09;;;;;;;;;;;;;;;14.21;72.35;100959.25;5129624;27;20408;-83
2022/11/25 01:08:35;;;;;;;;;;;;;;;14.24;72.07;100961.09;5103047;27;20157;-83
2022/11/25 01:11:01;;;;;;;;;;;;;;;14.17;72.17;100957.31;5113737;27;20006;-83
2022/11/25 01:13:27;;;;;;;;;;;;;;;14.16;72.51;100968.66;5113955;27;19916;-83
2022/11/25 01:15:52;;;;;;;;;;;;;;;14.14;72.50;100958.91;5108499;28;20395;-83
2022/11/25 01:18:18;;;;;;;;;;;;;;;14.18;72.25;100958.19;5113198;27;19919;-83
2022/11/25 01:20:43;;;;;;;;;;;;;;;14.12;72.57;100961.50;5128507;27;20478;-83
2022/11/25 01:23:09;;;;;;;;;;;;;;;14.10;72.65;100970.13;5140109;27;20430;-83
2022/11/25 01:25:38;;;;;;;;;;;;;;;14.23;72.21;100961.94;5129242;27;20376;-83
2022/11/25 01:28:03;;;;;;;;;;;;;;;14.14;72.60;100964.16;5109131;27;19916;-83
2022/11/25 01:30:28;;;;;;;;;;;;;;;14.12;72.54;100965.81;5134299;27;20019;-84
2022/11/25 01:32:54;;;;;;;;;;;;;;;14.13;72.32;100960.63;5126492;27;19920;-83
2022/11/25 01:35:19;;;;;;;;;;;;;;;14.09;72.29;100956.09;5113570;28;20380;-84
2022/11/25 01:37:45;;;;;;;;;;;;;;;14.03;72.63;100954.13;5113627;28;20534;-83
2022/11/25 01:40:10;;;;;;;;;;;;;;;14.05;72.83;100956.78;5132014;28;19927;-83
2022/11/25 01:42:41;;;;;;;;;;;;;;;14.05;72.59;100960.34;5131677;27;19915;-83
2022/11/25 01:45:26;;;;;;;;;;;;;;;14.08;72.69;100956.03;5132320;28;19922;-83
2022/11/25 01:47:53;;;;;;;;;;;;;;;14.02;72.50;100954.03;5117875;28;19911;-83
2022/11/25 01:50:19;;;;;;;;;;;;;;;14.09;72.69;100957.81;5113190;28;19958;-84
2022/11/25 01:52:45;;;;;;;;;;;;;;;14.05;72.61;100965.59;5091860;28;19920;-83
2022/11/25 01:55:10;;;;;;;;;;;;;;;14.07;72.46;100964.72;5104012;28;19968;-83
2022/11/25 01:57:42;;;;;;;;;;;;;;;14.05;72.68;100962.97;5129462;28;19976;-83
2022/11/25 02:00:08;;;;;;;;;;;;;;;14.10;72.41;100959.63;5120438;28;20376;-83
2022/11/25 02:02:33;;;;;;;;;;;;;;;14.02;72.93;100960.19;5107394;28;19915;-83
2022/11/25 02:05:00;;;;;;;;;;;;;;;14.08;72.39;100964.81;5084460;28;19973;-83
2022/11/25 02:07:38;;;;;;;;;;;;;;;14.05;72.48;100964.66;5129731;27;20392;-83
2022/11/25 02:10:05;;;;;;;;;;;;;;;14.05;72.52;100970.84;5112899;28;19962;-84
2022/11/25 02:12:30;;;;;;;;;;;;;;;14.07;72.40;100965.63;5107189;28;19911;-83
2022/11/25 02:14:56;;;;;;;;;;;;;;;14.11;72.25;100978.06;5099185;28;20373;-84
2022/11/25 02:17:21;;;;;;;;;;;;;;;14.10;72.35;100965.78;5106653;28;20779;-83
2022/11/25 02:19:51;;;;;;;;;;;;;;;14.07;72.26;100968.25;5124084;27;19915;-83
2022/11/25 02:22:21;;;;;;;;;;;;;;;14.03;72.70;100972.50;5115919;27;19957;-83
2022/11/25 02:24:47;;;;;;;;;;;;;;;13.97;72.76;100971.31;5119676;27;19916;-84
2022/11/25 02:27:12;;;;;;;;;;;;;;;13.98;72.93;100966.13;5139730;27;19922;-83
2022/11/25 02:29:38;;;;;;;;;;;;;;;13.97;72.91;100979.19;5121347;27;20361;-83
2022/11/25 02:32:04;;;;;;;;;;;;;;;14.06;72.63;100969.09;5098248;27;20027;-84
2022/11/25 02:34:29;;;;;;;;;;;;;;;14.00;72.66;100964.47;5112918;27;19980;-84
2022/11/25 02:36:55;;;;;;;;;;;;;;;14.02;72.64;100968.06;5133049;27;19923;-83
2022/11/25 02:39:21;;;;;;;;;;;;;;;13.99;72.65;100965.31;5127770;27;19972;-84
2022/11/25 02:41:47;;;;;;;;;;;;;;;14.04;72.51;100961.16;5130463;27;19915;-84
2022/11/25 02:44:13;;;;;;;;;;;;;;;13.98;72.82;100971.38;5142393;27;19915;-84
2022/11/25 02:46:38;;;;;;;;;;;;;;;13.97;72.75;100960.81;5140882;27;19922;-82
2022/11/25 02:49:04;;;;;;;;;;;;;;;14.03;72.58;100968.94;5145136;27;19911;-84
2022/11/25 02:51:30;;;;;;;;;;;;;;;13.96;72.56;100961.66;5104244;28;20407;-82
2022/11/25 02:53:55;;;;;;;;;;;;;;;13.97;72.71;100966.06;5122419;27;19968;-83
2022/11/25 02:56:21;;;;;;;;;;;;;;;13.98;72.53;100960.00;5093678;27;19912;-82
2022/11/25 02:58:47;;;;;;;;;;;;;;;14.02;72.15;100961.91;5103950;27;19977;-84
2022/11/25 03:01:12;;;;;;;;;;;;;;;13.96;72.62;100969.53;5131387;27;19911;-84
2022/11/25 03:03:38;;;;;;;;;;;;;;;13.95;72.43;100975.59;5134851;27;20392;-84
2022/11/25 03:06:03;;;;;;;;;;;;;;;13.98;72.63;100979.25;5133792;27;20342;-84
2022/11/25 03:08:29;;;;;;;;;;;;;;;13.94;72.37;100969.44;5130820;27;19999;-85
2022/11/25 03:10:54;;;;;;;;;;;;;;;13.95;72.66;100980.84;5134483;27;19950;-84
2022/11/25 03:13:20;;;;;;;;;;;;;;;13.95;72.50;100986.09;5135039;27;20380;-84
2022/11/25 03:15:45;;;;;;;;;;;;;;;13.92;72.70;100989.50;5110663;28;20426;-83
2022/11/25 03:18:10;;;;;;;;;;;;;;;13.91;72.67;100985.09;5112487;27;19948;-84
2022/11/25 03:20:36;;;;;;;;;;;;;;;13.84;72.80;100989.16;5125150;27;20315;-84
2022/11/25 03:23:02;;;;;;;;;;;;;;;13.86;72.85;100997.09;5113865;27;20328;-85
2022/11/25 03:25:27;;;;;;;;;;;;;;;13.90;72.73;100995.50;5109285;27;19916;-84
2022/11/25 03:27:52;;;;;;;;;;;;;;;13.90;72.74;100990.25;5115883;27;19915;-85
2022/11/25 03:30:19;;;;;;;;;;;;;;;13.91;72.75;100994.69;5108628;28;19924;-84
2022/11/25 03:32:44;;;;;;;;;;;;;;;13.87;72.61;100992.75;5106810;27;20384;-85
2022/11/25 03:35:10;;;;;;;;;;;;;;;13.86;72.56;100989.22;5115856;27;19964;-84
2022/11/25 03:37:36;;;;;;;;;;;;;;;13.82;72.83;100990.84;5134104;27;20332;-84
2022/11/25 03:40:01;;;;;;;;;;;;;;;13.83;72.84;100987.34;5134075;27;19916;-84
2022/11/25 03:42:27;;;;;;;;;;;;;;;13.88;72.68;100998.06;5108040;27;19916;-85
2022/11/25 03:44:52;;;;;;;;;;;;;;;13.87;72.76;100992.75;5114254;27;19929;-84
2022/11/25 03:47:18;;;;;;;;;;;;;;;13.82;72.88;100990.84;5123737;27;19920;-85
2022/11/25 03:49:43;;;;;;;;;;;;;;;13.80;72.65;100997.75;5108299;27;19988;-85
2022/11/25 03:52:09;;;;;;;;;;;;;;;13.83;72.50;100995.22;5128974;27;19991;-85
2022/11/25 03:54:34;;;;;;;;;;;;;;;13.88;72.30;100995.44;5124202;27;20377;-85
2022/11/25 03:56:59;;;;;;;;;;;;;;;13.82;72.47;100995.16;5114964;27;20441;-83
2022/11/25 03:59:25;;;;;;;;;;;;;;;13.76;72.72;101006.31;5125430;27;19920;-84
2022/11/25 04:01:50;;;;;;;;;;;;;;;13.76;72.76;101006.31;5134960;27;20410;-84
2022/11/25 04:04:16;;;;;;;;;;;;;;;13.83;72.56;101013.59;5109995;27;20411;-83
2022/11/25 04:06:41;;;;;;;;;;;;;;;13.82;72.36;101014.47;5133035;27;19922;-83
2022/11/25 04:09:07;;;;;;;;;;;;;;;13.81;72.57;101009.13;5113671;27;20406;-83
2022/11/25 04:14:16;;;;;;;;;;;;;;;13.79;71.95;101027.44;5130059;27;19937;-85
2022/11/25 04:16:42;;;;;;;;;;;;;;;13.82;72.14;101027.59;5129605;27;19919;-83
2022/11/25 04:19:07;;;;;;;;;;;;;;;13.76;72.45;101024.69;5110474;27;20365;-84
2022/11/25 04:21:32;;;;;;;;;;;;;;;13.81;71.96;101032.75;5129532;27;20445;-84
2022/11/25 04:23:58;;;;;;;;;;;;;;;13.80;72.15;101036.19;5133296;27;20316;-82
2022/11/25 04:26:23;;;;;;;;;;;;;;;13.73;72.31;101034.13;5134732;27;19922;-83
2022/11/25 04:28:49;;;;;;;;;;;;;;;13.75;72.17;101049.09;5127019;27;19911;-83
2022/11/25 04:31:14;;;;;;;;;;;;;;;13.75;72.14;101050.84;5105502;27;19915;-83
2022/11/25 04:33:40;;;;;;;;;;;;;;;13.70;72.37;101037.53;5149265;27;20366;-85
2022/11/25 04:36:05;;;;;;;;;;;;;;;13.70;72.12;101050.63;5144949;27;20292;-84
2022/11/25 04:38:31;;;;;;;;;;;;;;;13.70;72.16;101041.88;5133445;27;20381;-84
2022/11/25 04:40:56;;;;;;;;;;;;;;;13.68;72.38;101044.41;5149884;27;19938;-84
2022/11/25 04:43:21;;;;;;;;;;;;;;;13.72;72.37;101045.47;5138657;27;20316;-84
2022/11/25 04:45:47;;;;;;;;;;;;;;;13.69;72.33;101050.56;5146455;27;20468;-83
2022/11/25 04:48:13;;;;;;;;;;;;;;;13.71;72.27;101047.16;5130680;27;19976;-83
2022/11/25 04:50:38;;;;;;;;;;;;;;;13.67;72.47;101060.09;5149116;27;19950;-83
2022/11/25 04:53:03;;;;;;;;;;;;;;;13.70;72.26;101062.88;5115327;27;19916;-85
2022/11/25 04:55:29;;;;;;;;;;;;;;;13.64;72.48;101069.63;5122669;27;19915;-84
2022/11/25 04:57:54;;;;;;;;;;;;;;;13.68;72.59;101077.66;5119738;27;20069;-84
2022/11/25 05:00:20;;;;;;;;;;;;;;;13.67;72.41;101079.34;5131427;27;19922;-84
2022/11/25 05:02:45;;;;;;;;;;;;;;;13.72;72.26;101079.59;5100649;28;20012;-84
2022/11/25 05:05:11;;;;;;;;;;;;;;;13.68;72.51;101085.53;5114228;27;19916;-85
2022/11/25 05:07:37;;;;;;;;;;;;;;;13.67;72.45;101083.72;5115236;27;20372;-82
2022/11/25 05:10:03;;;;;;;;;;;;;;;13.62;72.60;101089.63;5120808;27;20369;-83
2022/11/25 05:12:28;;;;;;;;;;;;;;;13.59;72.66;101091.25;5131211;27;19921;-85
2022/11/25 05:14:54;;;;;;;;;;;;;;;13.62;72.54;101104.50;5114141;27;19922;-81
2022/11/25 05:17:21;;;;;;;;;;;;;;;13.64;72.33;101102.84;5140789;27;19930;-83
2022/11/25 05:19:48;;;;;;;;;;;;;;;13.63;72.54;101116.78;5101231;27;20202;-84
2022/11/25 05:22:15;;;;;;;;;;;;;;;13.66;72.37;101116.94;5112702;27;19975;-83
2022/11/25 05:24:40;;;;;;;;;;;;;;;13.64;72.46;101115.97;5094211;27;19915;-84
2022/11/25 05:27:06;;;;;;;;;;;;;;;13.70;72.14;101121.50;5127839;27;20350;-85
2022/11/25 05:29:34;;;;;;;;;;;;;;;13.66;72.18;101118.66;5104075;27;19919;-84
2022/11/25 05:31:59;;;;;;;;;;;;;;;13.69;72.20;101129.28;5105761;28;19915;-85
2022/11/25 05:34:25;;;;;;;;;;;;;;;13.65;72.12;101130.88;5142229;27;19919;-86
2022/11/25 05:36:50;;;;;;;;;;;;;;;13.64;72.25;101137.84;5130726;27;19919;-86
2022/11/25 05:39:16;;;;;;;;;;;;;;;13.61;72.36;101150.84;5130700;27;19911;-86
2022/11/25 05:41:41;;;;;;;;;;;;;;;13.58;72.62;101149.78;5111705;27;19919;-85
2022/11/25 05:44:07;;;;;;;;;;;;;;;13.59;72.67;101162.09;5131515;27;19915;-86
2022/11/25 05:46:32;;;;;;;;;;;;;;;13.66;72.26;101160.66;5137379;27;19963;-86
2022/11/25 05:48:58;;;;;;;;;;;;;;;13.63;72.37;101167.56;5149517;27;19915;-87
2022/11/25 05:51:24;;;;;;;;;;;;;;;13.61;72.59;101168.31;5114804;27;20012;-86
2022/11/25 05:53:51;;;;;;;;;;;;;;;13.64;72.29;101177.22;5098487;28;19923;-86
2022/11/25 05:56:16;;;;;;;;;;;;;;;13.56;72.65;101177.66;5120249;27;19923;-86
2022/11/25 05:58:42;;;;;;;;;;;;;;;13.61;72.45;101173.56;5100438;27;19915;-85
2022/11/25 06:01:08;;;;;;;;;;;;;;;13.58;72.65;101173.41;5136295;27;19979;-86
2022/11/25 06:03:33;;;;;;;;;;;;;;;13.59;72.52;101183.97;5124475;27;20014;-86
2022/11/25 06:05:59;;;;;;;;;;;;;;;13.57;72.47;101183.00;5113592;28;19955;-86
2022/11/25 06:08:25;;;;;;;;;;;;;;;13.60;72.44;101183.13;5102180;27;19971;-87
2022/11/25 06:10:50;;;;;;;;;;;;;;;13.58;72.34;101178.66;5108446;27;20316;-85
2022/11/25 06:13:15;;;;;;;;;;;;;;;13.59;72.63;101191.84;5145711;27;20001;-87
2022/11/25 06:15:43;;;;;;;;;;;;;;;13.59;72.51;101185.72;5108107;27;19916;-88
2022/11/25 06:18:09;;;;;;;;;;;;;;;13.52;72.68;101189.72;5101229;27;20007;-88
2022/11/25 06:20:34;;;;;;;;;;;;;;;13.50;72.90;101200.97;5116994;27;20005;-88
2022/11/25 06:22:59;;;;;;;;;;;;;;;13.53;72.83;101206.41;5086761;28;19924;-86
2022/11/25 06:25:25;;;;;;;;;;;;;;;13.53;72.62;101206.41;5114868;27;20303;-85
2022/11/25 06:27:50;;;;;;;;;;;;;;;13.48;72.88;101207.88;5089296;27;19915;-89
2022/11/25 06:30:16;;;;;;;;;;;;;;;13.51;72.63;101211.56;5092877;28;20381;-88
2022/11/25 06:32:42;;;;;;;;;;;;;;;13.59;72.63;101214.56;5123408;27;19922;-85
2022/11/25 06:35:07;;;;;;;;;;;;;;;13.42;71.04;101209.38;5115262;27;20444;-88
2022/11/25 06:37:33;;;;;;;;;;;;;;;13.46;71.45;101220.91;5112948;27;19920;-87
2022/11/25 06:39:58;;;;;;;;;;;;;;;13.47;71.91;101225.34;5094786;28;19916;-87
2022/11/25 06:42:24;;;;;;;;;;;;;;;13.48;71.84;101221.00;5121849;27;20292;-85
2022/11/25 06:44:49;;;;;;;;;;;;;;;13.52;72.01;101226.47;5143569;27;20009;-85
2022/11/25 06:47:15;;;;;;;;;;;;;;;13.51;71.96;101234.28;5113314;27;20306;-86
2022/11/25 06:49:40;;;;;;;;;;;;;;;13.46;72.26;101236.66;5115416;27;20273;-86
2022/11/25 06:52:06;;;;;;;;;;;;;;;13.48;72.19;101235.00;5106308;27;20399;-87
2022/11/25 06:54:31;;;;;;;;;;;;;;;13.46;72.10;101241.91;5121246;27;20551;-86
2022/11/25 06:56:57;;;;;;;;;;;;;;;13.40;72.34;101239.91;5137477;27;20380;-87
2022/11/25 06:59:22;;;;;;;;;;;;;;;13.40;72.27;101242.50;5124450;27;19971;-87
2022/11/25 07:01:48;;;;;;;;;;;;;;;13.42;72.57;101242.59;5109310;27;19919;-86
2022/11/25 07:04:13;;;;;;;;;;;;;;;13.35;72.52;101243.09;5101638;27;20571;-87
2022/11/25 07:06:38;;;;;;;;;;;;;;;13.36;72.23;101245.81;5146622;27;19911;-86
2022/11/25 07:09:04;;;;;;;;;;;;;;;13.37;72.19;101233.59;5119467;27;19911;-87
2022/11/25 07:11:32;;;;;;;;;;;;;;;13.37;72.32;101244.97;5116984;27;19911;-87
2022/11/25 07:13:58;;;;;;;;;;;;;;;13.33;72.66;101243.00;5103672;28;19912;-87
2022/11/25 07:16:24;;;;;;;;;;;;;;;13.29;72.87;101240.16;5129228;27;19919;-87
2022/11/25 07:18:49;;;;;;;;;;;;;;;13.26;72.82;101240.88;5133488;27;19921;-87
2022/11/25 07:21:16;;;;;;;;;;;;;;;13.31;72.55;101242.03;5133832;27;19911;-87
2022/11/25 07:23:41;;;;;;;;;;;;;;;13.26;72.84;101245.22;5135007;27;20381;-87
2022/11/25 07:26:08;;;;;;;;;;;;;;;13.31;72.43;101255.16;5132652;27;20423;-86
2022/11/25 07:28:34;;;;;;;;;;;;;;;13.33;72.30;101260.47;5134855;27;19917;-86
2022/11/25 07:31:05;;;;;;;;;;;;;;;13.35;72.56;101264.97;5132246;27;19911;-86
2022/11/25 07:33:31;;;;;;;;;;;;;;;13.37;72.11;101268.56;5153299;27;20395;-87
2022/11/25 07:36:00;;;;;;;;;;;;;;;13.32;72.38;101270.09;5130289;27;19918;-85
2022/11/25 07:38:26;;;;;;;;;;;;;;;13.33;72.11;101279.72;5134839;27;19935;-87
2022/11/25 07:40:51;;;;;;;;;;;;;;;13.34;72.04;101273.69;5150224;27;19915;-87
2022/11/25 07:43:17;;;;;;;;;;;;;;;13.33;72.33;101274.50;5131292;27;20006;-87
2022/11/25 07:45:42;;;;;;;;;;;;;;;13.39;72.02;101287.91;5153527;27;19918;-87
2022/11/25 07:48:08;;;;;;;;;;;;;;;13.33;72.10;101287.59;5150762;27;20455;-85
2022/11/25 07:50:33;;;;;;;;;;;;;;;13.29;72.50;101288.28;5153122;27;20528;-86
2022/11/25 07:52:58;;;;;;;;;;;;;;;13.35;72.18;101292.94;5117892;27;20289;-88
2022/11/25 07:55:24;;;;;;;;;;;;;;;13.34;72.38;101284.19;5132338;27;20307;-87
2022/11/25 07:57:49;;;;;;;;;;;;;;;13.30;72.34;101299.69;5131565;27;19911;-87
2022/11/25 08:00:15;;;;;;;;;;;;;;;13.31;72.43;101306.72;5105371;27;19916;-87
2022/11/25 08:02:40;;;;;;;;;;;;;;;13.30;72.25;101308.44;5115833;27;20307;-87
2022/11/25 08:05:06;;;;;;;;;;;;;;;13.26;72.41;101308.19;5121352;27;19916;-86
2022/11/25 08:07:31;;;;;;;;;;;;;;;13.29;72.56;101314.50;5132175;27;20281;-86
2022/11/25 08:09:57;;;;;;;;;;;;;;;13.29;72.16;101318.84;5115686;27;19951;-87
2022/11/25 08:12:22;;;;;;;;;;;;;;;13.28;72.12;101317.03;5135109;27;20400;-87
2022/11/25 08:14:47;;;;;;;;;;;;;;;13.26;72.55;101321.28;5154177;27;20304;-87
2022/11/25 08:17:13;;;;;;;;;;;;;;;13.29;72.25;101317.13;5129183;27;20359;-87
2022/11/25 08:19:39;;;;;;;;;;;;;;;13.27;72.19;101317.84;5150574;27;20364;-87
2022/11/25 08:22:05;;;;;;;;;;;;;;;13.29;72.13;101322.38;5131603;27;20412;-85
2022/11/25 08:24:30;;;;;;;;;;;;;;;13.27;72.24;101323.06;5130157;27;19918;-86
2022/11/25 08:26:57;;;;;;;;;;;;;;;13.26;72.32;101323.91;5150180;27;19915;-87
2022/11/25 08:29:24;;;;;;;;;;;;;;;13.24;72.24;101329.97;5129292;27;19912;-86
2022/11/25 08:31:49;;;;;;;;;;;;;;;13.23;72.31;101337.78;5133870;27;20003;-88
2022/11/25 08:34:19;;;;;;;;;;;;;;;13.21;72.20;101329.81;5128180;27;19947;-87
2022/11/25 08:36:44;;;;;;;;;;;;;;;13.19;72.58;101335.81;5133684;27;19938;-87
2022/11/25 08:39:10;;;;;;;;;;;;;;;13.22;72.32;101336.84;5132464;27;20364;-87
2022/11/25 08:41:36;;;;;;;;;;;;;;;13.23;72.21;101332.53;5148864;27;19918;-87
2022/11/25 08:44:02;;;;;;;;;;;;;;;13.22;72.47;101331.59;5113866;27;19910;-87
2022/11/25 08:46:28;;;;;;;;;;;;;;;13.25;72.45;101333.50;5118059;27;19922;-87
2022/11/25 08:48:54;;;;;;;;;;;;;;;13.26;72.26;101337.03;5102711;27;20010;-87
2022/11/25 08:51:27;;;;;;;;;;;;;;;13.27;72.14;101339.75;5110557;27;20219;-87
2022/11/25 08:53:53;;;;;;;;;;;;;;;13.26;72.19;101334.41;5112049;27;20353;-87
2022/11/25 08:56:20;;;;;;;;;;;;;;;13.23;72.49;101338.66;5131334;27;19964;-88
2022/11/25 08:58:48;;;;;;;;;;;;;;;13.25;72.07;101341.38;5093929;27;19916;-87
2022/11/25 09:01:13;;;;;;;;;;;;;;;13.23;72.38;101335.16;5103353;27;19934;-87
2022/11/25 09:03:40;;;;;;;;;;;;;;;13.26;72.06;101332.69;5114787;27;20587;-89
2022/11/25 09:06:07;;;;;;;;;;;;;;;13.28;72.01;101345.88;5094096;28;20352;-88
2022/11/25 09:08:32;;;;;;;;;;;;;;;13.24;72.31;101347.44;5087972;27;19919;-88
2022/11/25 09:10:59;;;;;;;;;;;;;;;13.22;72.41;101344.72;5114212;27;19912;-88
2022/11/25 09:13:24;;;;;;;;;;;;;;;13.27;71.91;101350.22;5129545;27;19960;-88
2022/11/25 09:15:50;;;;;;;;;;;;;;;13.26;72.05;101352.75;5128620;27;19911;-87
2022/11/25 09:18:18;;;;;;;;;;;;;;;13.19;72.52;101351.56;5125112;27;20006;-87
2022/11/25 09:20:44;;;;;;;;;;;;;;;13.18;72.46;101352.34;5115580;27;20443;-88
2022/11/25 09:23:10;;;;;;;;;;;;;;;13.18;72.61;101345.38;5106070;27;20003;-87
2022/11/25 09:25:35;;;;;;;;;;;;;;;13.18;72.22;101339.25;5094273;27;20368;-88
2022/11/25 09:28:01;;;;;;;;;;;;;;;13.22;72.31;101344.72;5086383;27;20014;-88
2022/11/25 09:30:26;;;;;;;;;;;;;;;13.17;72.54;101335.72;5098123;27;19915;-88
2022/11/25 09:32:52;;;;;;;;;;;;;;;13.19;72.35;101338.44;5115807;28;19911;-86
2022/11/25 09:35:18;;;;;;;;;;;;;;;13.21;72.25;101331.56;5103696;28;19965;-85
2022/11/25 09:37:43;;;;;;;;;;;;;;;13.17;72.34;101329.59;5129689;27;19916;-85
2022/11/25 09:40:19;;;;;;;;;;;;;;;13.22;72.07;101335.97;5095340;28;20006;-86
2022/11/25 09:48:51;;;;;;;;;;;;;;;13.19;72.21;101338.44;5112914;27;20456;-86
2022/11/25 09:51:23;;;;;;;;;;;;;;;13.19;72.06;101335.81;5138325;27;19911;-86
2022/11/25 09:54:00;;;;;;;;;;;;;;;13.18;72.14;101334.88;5109793;27;19911;-86
2022/11/25 09:56:25;;;;;;;;;;;;;;;13.30;71.67;101333.78;5117519;27;19911;-86
2022/11/25 09:58:52;;;;;;;;;;;;;;;13.27;71.84;101341.44;5128241;27;20349;-86
2022/11/25 10:01:20;;;;;;;;;;;;;;;13.17;71.99;101338.34;5097647;28;19955;-86
2022/11/25 10:04:03;;;;;;;;;;;;;;;13.16;71.76;101338.25;5096777;27;20387;-86
2022/11/25 10:06:35;;;;;;;;;;;;;;;13.16;71.97;101339.16;5118167;27;19911;-85
2022/11/25 10:09:02;;;;;;;;;;;;;;;13.21;71.36;101350.81;5103684;27;20347;-87
2022/11/25 10:12:03;;;;;;;;;;;;;;;13.15;71.80;101362.69;5119181;27;19912;-90
2022/11/25 10:14:59;;;;;;;;;;;;;;;13.23;71.41;101357.03;5098519;28;20002;-88
2022/11/25 10:17:34;;;;;;;;;;;;;;;13.13;71.71;101359.97;5103374;27;20406;-91
2022/11/25 10:19:59;;;;;;;;;;;;;;;13.21;70.93;101363.91;5134337;27;20303;-82
2022/11/25 10:22:26;;;;;;;;;;;;;;;13.18;69.39;101362.84;5150374;27;19911;-90
2022/11/25 10:24:52;;;;;;;;;;;;;;;13.16;68.73;101367.09;5136623;27;20006;-85
2022/11/25 10:27:21;;;;;;;;;;;;;;;13.14;67.53;101359.16;5135169;27;19913;-85
2022/11/25 10:29:48;;;;;;;;;;;;;;;13.05;69.52;101369.16;5135605;27;19923;-88
2022/11/25 10:32:18;;;;;;;;;;;;;;;12.98;70.31;101375.78;5134082;27;20029;-86
2022/11/25 10:34:44;;;;;;;;;;;;;;;13.03;70.76;101370.78;5132679;27;19911;-87
2022/11/25 10:37:11;;;;;;;;;;;;;;;12.97;70.97;101373.97;5118835;27;19922;-87
2022/11/25 10:39:39;;;;;;;;;;;;;;;12.97;70.96;101371.34;5134256;27;19961;-89
2022/11/25 10:42:17;;;;;;;;;;;;;;;12.94;71.26;101373.81;5120433;27;19911;-92
2022/11/25 10:44:44;;;;;;;;;;;;;;;12.94;71.30;101379.06;5133061;27;19912;-89
2022/11/25 10:47:09;;;;;;;;;;;;;;;12.94;71.40;101386.03;5114504;27;19912;-88
2022/11/25 10:49:41;;;;;;;;;;;;;;;13.05;70.41;101382.28;5114597;27;20281;-87
2022/11/25 10:52:12;;;;;;;;;;;;;;;13.20;70.57;101374.31;5109075;28;20324;-90
2022/11/25 10:54:40;;;;;;;;;;;;;;;13.18;69.98;101378.59;5107673;27;19938;-92
2022/11/25 10:57:19;;;;;;;;;;;;;;;13.13;71.24;101380.06;5121719;27;19915;-92
2022/11/25 11:00:05;;;;;;;;;;;;;;;13.09;71.36;101381.63;5097111;28;19947;-88
2022/11/25 11:02:47;;;;;;;;;;;;;;;13.09;71.41;101379.00;5111521;28;19911;-93
2022/11/25 11:05:16;;;;;;;;;;;;;;;13.07;71.91;101388.50;5098643;28;19911;-92
2022/11/25 11:08:13;;;;;;;;;;;;;;;13.06;72.00;101386.72;5101280;27;19911;-91
2022/11/25 11:11:01;;;;;;;;;;;;;;;13.07;72.21;101392.84;5117898;27;20436;-92
2022/11/25 11:13:39;;;;;;;;;;;;;;;13.06;72.35;101385.78;5136592;27;19916;-92
2022/11/25 11:16:19;;;;;;;;;;;;;;;13.09;72.37;101392.09;5100737;27;19911;-92
2022/11/25 11:19:08;;;;;;;;;;;;;;;13.09;72.47;101394.72;5133026;27;19919;-92
2022/11/25 11:21:36;;;;;;;;;;;;;;;13.08;72.32;101402.50;5113783;27;19911;-91
2022/11/25 11:24:02;;;;;;;;;;;;;;;13.10;72.55;101399.16;5108465;27;19912;-86
2022/11/25 11:26:32;;;;;;;;;;;;;;;13.09;72.38;101397.34;5132949;27;20444;-85
2022/11/25 11:29:14;;;;;;;;;;;;;;;13.10;72.66;101400.88;5132303;27;20006;-86
2022/11/25 11:31:43;;;;;;;;;;;;;;;13.06;72.56;101404.13;5123401;27;19915;-86
2022/11/25 11:34:32;;;;;;;;;;;;;;;13.06;72.85;101396.28;5118717;27;20411;-87
2022/11/25 11:36:57;;;;;;;;;;;;;;;13.05;72.28;101395.38;5132881;27;19919;-89
2022/11/25 11:39:32;;;;;;;;;;;;;;;13.09;72.31;101399.97;5114048;27;19969;-86
2022/11/25 11:42:33;;;;;;;;;;;;;;;12.96;72.54;101411.50;5132673;27;19919;-84
2022/11/25 11:45:04;;;;;;;;;;;;;;;12.94;72.83;101407.00;5013933;28;20003;-88
2022/11/25 11:47:48;;;;;;;;;;;;;;;12.92;72.34;101411.28;5120146;27;20414;-86
2022/11/25 11:50:22;;;;;;;;;;;;;;;12.97;72.31;101401.91;5134468;27;19915;-88
2022/11/25 11:52:51;;;;;;;;;;;;;;;12.99;72.47;101395.03;5113343;27;19975;-88
2022/11/25 11:55:20;;;;;;;;;;;;;;;12.96;72.43;101403.66;5120957;27;20399;-88
2022/11/25 11:57:50;;;;;;;;;;;;;;;12.99;72.74;101413.41;5134566;27;20395;-88
2022/11/25 12:00:16;;;;;;;;;;;;;;;12.98;72.54;101407.25;5084222;27;19911;-88
2022/11/25 12:02:58;;;;;;;;;;;;;;;13.00;72.90;101415.22;5095375;28;19964;-88
2022/11/25 12:05:25;;;;;;;;;;;;;;;12.97;72.47;101417.66;5113154;27;19915;-89
2022/11/25 12:08:05;;;;;;;;;;;;;;;12.98;72.43;101417.75;5114489;27;19911;-89
2022/11/25 12:10:44;;;;;;;;;;;;;;;13.00;72.09;101412.59;5114047;27;20345;-88
2022/11/25 12:13:21;;;;;;;;;;;;;;;12.97;71.96;101421.16;5114899;27;19990;-88
2022/11/25 12:15:47;;;;;;;;;;;;;;;13.04;72.75;101418.09;5114346;27;20357;-89
2022/11/25 12:18:33;;;;;;;;;;;;;;;13.06;72.77;101422.50;5149111;27;19970;-89
2022/11/25 12:21:04;;;;;;;;;;;;;;;13.12;72.47;101413.25;5101840;27;20278;-89
2022/11/25 12:23:41;;;;;;;;;;;;;;;13.12;72.69;101422.81;5103462;28;20459;-88
2022/11/25 12:26:08;;;;;;;;;;;;;;;13.24;72.51;101426.13;5116800;27;19918;-88
2022/11/25 12:28:38;;;;;;;;;;;;;;;13.20;72.30;101422.41;5095102;28;19966;-86
2022/11/25 12:31:18;;;;;;;;;;;;;;;13.20;72.42;101422.41;5123237;27;19912;-86
2022/11/25 12:33:59;;;;;;;;;;;;;;;13.24;72.23;101424.38;5133508;27;19918;-86
2022/11/25 12:36:30;;;;;;;;;;;;;;;13.20;72.71;101425.03;5145682;27;19912;-86
2022/11/25 12:39:00;;;;;;;;;;;;;;;13.18;72.85;101428.41;5151965;27;20443;-86
2022/11/25 12:41:36;;;;;;;;;;;;;;;13.30;72.46;101423.84;5129283;27;19963;-86
2022/11/25 12:44:04;;;;;;;;;;;;;;;13.24;72.55;101434.88;5131409;27;19911;-86
2022/11/25 12:46:46;;;;;;;;;;;;;;;13.18;72.81;101424.06;5145265;27;19934;-87
2022/11/25 12:49:26;;;;;;;;;;;;;;;13.19;72.68;101431.13;5117039;27;19922;-88
2022/11/25 12:51:54;;;;;;;;;;;;;;;13.17;73.31;101430.13;5097989;27;20005;-87
2022/11/25 12:54:38;;;;;;;;;;;;;;;13.17;73.25;101424.00;5137538;27;19917;-87